sensor_id;sensor_type;location;lat;lon;timestamp;P1;durP1;ratioP1;P2;durP2;ratioP2
26113;SDS011;13966;48.828;9.064;2023-04-05T00:00:14;15.32;;;8.95;;
26113;SDS011;13966;48.828;9.064;2023-04-05T00:02:40;14.05;;;8.73;;
26113;SDS011;13966;48.828;9.064;2023-04-05T00:05:06;15.27;;;9.27;;
26113;SDS011;13966;48.828;9.064;2023-04-05T00:07:32;11.02;;;8.40;;
26113;SDS011;13966;48.828;9.064;2023-04-05T00:09:59;13.10;;;8.82;;
26113;SDS011;13966;48.828;9.064;2023-04-05T00:12:25;12.65;;;8.52;;
26113;SDS011;13966;48.828;9.064;2023-04-05T00:14:51;13.65;;;8.98;;
26113;SDS011;13966;48.828;9.064;2023-04-05T00:17:17;14.15;;;10.20;;
26113;SDS011;13966;48.828;9.064;2023-04-05T00:19:43;13.73;;;8.80;;
26113;SDS011;13966;48.828;9.064;2023-04-05T00:22:09;11.52;;;8.45;;
26113;SDS011;13966;48.828;9.064;2023-04-05T00:24:36;13.30;;;9.90;;
26113;SDS011;13966;48.828;9.064;2023-04-05T00:27:07;11.43;;;8.35;;
26113;SDS011;13966;48.828;9.064;2023-04-05T00:29:33;11.55;;;8.30;;
26113;SDS011;13966;48.828;9.064;2023-04-05T00:31:59;13.50;;;8.98;;
26113;SDS011;13966;48.828;9.064;2023-04-05T00:34:25;13.55;;;8.30;;
26113;SDS011;13966;48.828;9.064;2023-04-05T00:36:51;14.88;;;8.82;;
26113;SDS011;13966;48.828;9.064;2023-04-05T00:39:17;11.82;;;8.38;;
26113;SDS011;13966;48.828;9.064;2023-04-05T00:41:43;12.27;;;8.40;;
26113;SDS011;13966;48.828;9.064;2023-04-05T00:44:09;15.52;;;9.20;;
26113;SDS011;13966;48.828;9.064;2023-04-05T00:46:36;11.18;;;8.23;;
26113;SDS011;13966;48.828;9.064;2023-04-05T00:49:03;12.85;;;8.50;;
26113;SDS011;13966;48.828;9.064;2023-04-05T00:51:30;10.65;;;8.38;;
26113;SDS011;13966;48.828;9.064;2023-04-05T00:53:57;16.58;;;9.38;;
26113;SDS011;13966;48.828;9.064;2023-04-05T00:56:24;12.80;;;7.88;;
26113;SDS011;13966;48.828;9.064;2023-04-05T00:58:50;13.10;;;8.15;;
26113;SDS011;13966;48.828;9.064;2023-04-05T01:01:20;13.30;;;8.65;;
26113;SDS011;13966;48.828;9.064;2023-04-05T01:03:55;14.13;;;9.25;;
26113;SDS011;13966;48.828;9.064;2023-04-05T01:06:43;13.00;;;8.60;;
26113;SDS011;13966;48.828;9.064;2023-04-05T01:11:55;14.55;;;8.70;;
26113;SDS011;13966;48.828;9.064;2023-04-05T01:14:21;15.85;;;10.15;;
26113;SDS011;13966;48.828;9.064;2023-04-05T01:16:48;19.02;;;9.50;;
26113;SDS011;13966;48.828;9.064;2023-04-05T01:19:15;15.88;;;9.60;;
26113;SDS011;13966;48.828;9.064;2023-04-05T01:27:15;19.27;;;10.38;;
26113;SDS011;13966;48.828;9.064;2023-04-05T01:37:17;15.77;;;9.60;;
26113;SDS011;13966;48.828;9.064;2023-04-05T01:39:43;17.13;;;9.75;;
26113;SDS011;13966;48.828;9.064;2023-04-05T01:42:11;14.35;;;9.15;;
26113;SDS011;13966;48.828;9.064;2023-04-05T01:44:37;16.05;;;10.20;;
26113;SDS011;13966;48.828;9.064;2023-04-05T01:47:03;15.10;;;9.38;;
26113;SDS011;13966;48.828;9.064;2023-04-05T01:49:29;15.10;;;9.65;;
26113;SDS011;13966;48.828;9.064;2023-04-05T01:51:55;14.52;;;9.60;;
26113;SDS011;13966;48.828;9.064;2023-04-05T01:54:21;14.95;;;9.50;;
26113;SDS011;13966;48.828;9.064;2023-04-05T01:56:47;15.68;;;8.98;;
26113;SDS011;13966;48.828;9.064;2023-04-05T01:59:13;13.32;;;9.50;;
26113;SDS011;13966;48.828;9.064;2023-04-05T02:01:39;13.15;;;9.10;;
26113;SDS011;13966;48.828;9.064;2023-04-05T02:04:05;14.93;;;9.27;;
26113;SDS011;13966;48.828;9.064;2023-04-05T02:06:31;13.48;;;9.07;;
26113;SDS011;13966;48.828;9.064;2023-04-05T02:08:57;15.05;;;9.40;;
26113;SDS011;13966;48.828;9.064;2023-04-05T02:11:23;16.02;;;10.05;;
26113;SDS011;13966;48.828;9.064;2023-04-05T02:13:49;15.68;;;9.25;;
26113;SDS011;13966;48.828;9.064;2023-04-05T02:16:15;13.85;;;9.88;;
26113;SDS011;13966;48.828;9.064;2023-04-05T02:18:42;13.82;;;9.02;;
26113;SDS011;13966;48.828;9.064;2023-04-05T02:21:14;14.20;;;9.18;;
26113;SDS011;13966;48.828;9.064;2023-04-05T02:23:40;14.70;;;9.15;;
26113;SDS011;13966;48.828;9.064;2023-04-05T02:26:06;13.50;;;8.60;;
26113;SDS011;13966;48.828;9.064;2023-04-05T02:28:32;12.48;;;8.77;;
26113;SDS011;13966;48.828;9.064;2023-04-05T02:30:58;15.27;;;9.40;;
26113;SDS011;13966;48.828;9.064;2023-04-05T02:33:24;14.73;;;9.02;;
26113;SDS011;13966;48.828;9.064;2023-04-05T02:35:51;12.65;;;8.95;;
26113;SDS011;13966;48.828;9.064;2023-04-05T02:38:18;15.10;;;8.63;;
26113;SDS011;13966;48.828;9.064;2023-04-05T02:40:50;13.77;;;8.25;;
26113;SDS011;13966;48.828;9.064;2023-04-05T02:43:16;11.60;;;8.90;;
26113;SDS011;13966;48.828;9.064;2023-04-05T02:45:42;16.05;;;9.52;;
26113;SDS011;13966;48.828;9.064;2023-04-05T02:48:08;13.27;;;9.07;;
26113;SDS011;13966;48.828;9.064;2023-04-05T02:50:34;13.70;;;9.65;;
26113;SDS011;13966;48.828;9.064;2023-04-05T02:53:00;13.45;;;9.23;;
26113;SDS011;13966;48.828;9.064;2023-04-05T02:55:26;15.50;;;9.88;;
26113;SDS011;13966;48.828;9.064;2023-04-05T02:57:57;15.15;;;8.98;;
26113;SDS011;13966;48.828;9.064;2023-04-05T03:00:24;13.07;;;9.20;;
26113;SDS011;13966;48.828;9.064;2023-04-05T03:02:51;12.40;;;9.05;;
26113;SDS011;13966;48.828;9.064;2023-04-05T03:05:17;16.70;;;9.48;;
26113;SDS011;13966;48.828;9.064;2023-04-05T03:07:44;14.10;;;9.98;;
26113;SDS011;13966;48.828;9.064;2023-04-05T03:10:11;17.95;;;10.10;;
26113;SDS011;13966;48.828;9.064;2023-04-05T03:12:37;14.57;;;9.68;;
26113;SDS011;13966;48.828;9.064;2023-04-05T03:15:03;14.25;;;9.73;;
26113;SDS011;13966;48.828;9.064;2023-04-05T03:17:30;17.48;;;10.30;;
26113;SDS011;13966;48.828;9.064;2023-04-05T03:19:56;15.60;;;10.32;;
26113;SDS011;13966;48.828;9.064;2023-04-05T03:22:24;14.35;;;10.25;;
26113;SDS011;13966;48.828;9.064;2023-04-05T03:24:51;17.73;;;10.43;;
26113;SDS011;13966;48.828;9.064;2023-04-05T03:27:17;16.50;;;10.55;;
26113;SDS011;13966;48.828;9.064;2023-04-05T03:29:43;16.27;;;10.80;;
26113;SDS011;13966;48.828;9.064;2023-04-05T03:32:09;19.33;;;10.65;;
26113;SDS011;13966;48.828;9.064;2023-04-05T03:34:37;14.43;;;10.30;;
26113;SDS011;13966;48.828;9.064;2023-04-05T03:37:03;13.52;;;10.18;;
26113;SDS011;13966;48.828;9.064;2023-04-05T03:39:29;16.88;;;10.35;;
26113;SDS011;13966;48.828;9.064;2023-04-05T03:41:56;17.95;;;10.38;;
26113;SDS011;13966;48.828;9.064;2023-04-05T03:44:22;13.65;;;10.00;;
26113;SDS011;13966;48.828;9.064;2023-04-05T03:46:47;20.98;;;12.70;;
26113;SDS011;13966;48.828;9.064;2023-04-05T03:49:13;18.30;;;10.93;;
26113;SDS011;13966;48.828;9.064;2023-04-05T03:51:40;15.93;;;10.77;;
26113;SDS011;13966;48.828;9.064;2023-04-05T03:54:06;14.77;;;10.50;;
26113;SDS011;13966;48.828;9.064;2023-04-05T03:56:32;16.80;;;10.68;;
26113;SDS011;13966;48.828;9.064;2023-04-05T03:58:58;14.68;;;10.30;;
26113;SDS011;13966;48.828;9.064;2023-04-05T04:01:24;18.50;;;10.98;;
26113;SDS011;13966;48.828;9.064;2023-04-05T04:03:51;20.45;;;11.07;;
26113;SDS011;13966;48.828;9.064;2023-04-05T04:06:16;15.55;;;10.68;;
26113;SDS011;13966;48.828;9.064;2023-04-05T04:08:43;20.17;;;11.70;;
26113;SDS011;13966;48.828;9.064;2023-04-05T04:11:09;16.73;;;10.68;;
26113;SDS011;13966;48.828;9.064;2023-04-05T04:13:35;14.07;;;9.75;;
26113;SDS011;13966;48.828;9.064;2023-04-05T04:16:01;15.70;;;11.10;;
26113;SDS011;13966;48.828;9.064;2023-04-05T04:18:27;18.80;;;10.35;;
26113;SDS011;13966;48.828;9.064;2023-04-05T04:20:54;15.23;;;10.45;;
26113;SDS011;13966;48.828;9.064;2023-04-05T04:23:20;17.15;;;10.00;;
26113;SDS011;13966;48.828;9.064;2023-04-05T04:25:49;19.45;;;10.70;;
26113;SDS011;13966;48.828;9.064;2023-04-05T04:28:18;20.67;;;11.88;;
26113;SDS011;13966;48.828;9.064;2023-04-05T04:30:44;16.95;;;10.77;;
26113;SDS011;13966;48.828;9.064;2023-04-05T04:33:10;17.88;;;10.13;;
26113;SDS011;13966;48.828;9.064;2023-04-05T04:35:36;16.52;;;11.10;;
26113;SDS011;13966;48.828;9.064;2023-04-05T04:38:03;24.60;;;11.35;;
26113;SDS011;13966;48.828;9.064;2023-04-05T04:40:30;15.98;;;10.07;;
26113;SDS011;13966;48.828;9.064;2023-04-05T04:43:06;14.40;;;10.10;;
26113;SDS011;13966;48.828;9.064;2023-04-05T04:45:38;20.00;;;11.15;;
26113;SDS011;13966;48.828;9.064;2023-04-05T04:48:04;20.05;;;11.25;;
26113;SDS011;13966;48.828;9.064;2023-04-05T04:50:32;18.20;;;11.35;;
26113;SDS011;13966;48.828;9.064;2023-04-05T04:52:58;21.83;;;10.75;;
26113;SDS011;13966;48.828;9.064;2023-04-05T04:55:25;17.13;;;10.35;;
26113;SDS011;13966;48.828;9.064;2023-04-05T04:57:51;18.25;;;10.80;;
26113;SDS011;13966;48.828;9.064;2023-04-05T05:00:18;14.30;;;10.82;;
26113;SDS011;13966;48.828;9.064;2023-04-05T05:02:45;18.77;;;10.70;;
26113;SDS011;13966;48.828;9.064;2023-04-05T05:05:11;18.52;;;10.40;;
26113;SDS011;13966;48.828;9.064;2023-04-05T05:07:38;17.23;;;10.38;;
26113;SDS011;13966;48.828;9.064;2023-04-05T05:10:08;17.38;;;10.68;;
26113;SDS011;13966;48.828;9.064;2023-04-05T05:12:35;20.80;;;11.30;;
26113;SDS011;13966;48.828;9.064;2023-04-05T05:15:01;18.40;;;11.00;;
26113;SDS011;13966;48.828;9.064;2023-04-05T05:17:27;16.70;;;11.18;;
26113;SDS011;13966;48.828;9.064;2023-04-05T05:19:52;20.45;;;12.07;;
26113;SDS011;13966;48.828;9.064;2023-04-05T05:22:18;23.77;;;12.18;;
26113;SDS011;13966;48.828;9.064;2023-04-05T05:24:45;20.50;;;11.32;;
26113;SDS011;13966;48.828;9.064;2023-04-05T05:27:12;18.92;;;11.38;;
26113;SDS011;13966;48.828;9.064;2023-04-05T05:29:38;17.77;;;11.32;;
26113;SDS011;13966;48.828;9.064;2023-04-05T05:32:04;16.60;;;10.45;;
26113;SDS011;13966;48.828;9.064;2023-04-05T05:34:31;17.55;;;10.85;;
26113;SDS011;13966;48.828;9.064;2023-04-05T05:36:57;19.58;;;11.20;;
26113;SDS011;13966;48.828;9.064;2023-04-05T05:39:23;19.80;;;10.90;;
26113;SDS011;13966;48.828;9.064;2023-04-05T05:41:49;20.40;;;10.35;;
26113;SDS011;13966;48.828;9.064;2023-04-05T05:44:15;17.48;;;10.73;;
26113;SDS011;13966;48.828;9.064;2023-04-05T05:46:41;19.08;;;9.82;;
26113;SDS011;13966;48.828;9.064;2023-04-05T05:49:07;21.02;;;11.25;;
26113;SDS011;13966;48.828;9.064;2023-04-05T05:51:33;23.85;;;12.07;;
26113;SDS011;13966;48.828;9.064;2023-04-05T05:54:00;21.65;;;10.73;;
26113;SDS011;13966;48.828;9.064;2023-04-05T05:56:26;21.65;;;10.88;;
26113;SDS011;13966;48.828;9.064;2023-04-05T05:58:52;15.70;;;10.45;;
26113;SDS011;13966;48.828;9.064;2023-04-05T06:01:18;16.38;;;9.38;;
26113;SDS011;13966;48.828;9.064;2023-04-05T06:03:47;17.92;;;10.63;;
26113;SDS011;13966;48.828;9.064;2023-04-05T06:06:14;20.30;;;11.18;;
26113;SDS011;13966;48.828;9.064;2023-04-05T06:08:40;22.67;;;11.40;;
26113;SDS011;13966;48.828;9.064;2023-04-05T06:11:06;17.23;;;10.48;;
26113;SDS011;13966;48.828;9.064;2023-04-05T06:13:32;17.35;;;11.20;;
26113;SDS011;13966;48.828;9.064;2023-04-05T06:15:59;16.42;;;10.15;;
26113;SDS011;13966;48.828;9.064;2023-04-05T06:18:26;19.58;;;10.98;;
26113;SDS011;13966;48.828;9.064;2023-04-05T06:20:53;18.27;;;10.80;;
26113;SDS011;13966;48.828;9.064;2023-04-05T06:23:19;20.73;;;11.27;;
26113;SDS011;13966;48.828;9.064;2023-04-05T06:25:45;14.75;;;10.02;;
26113;SDS011;13966;48.828;9.064;2023-04-05T06:28:11;14.25;;;9.65;;
26113;SDS011;13966;48.828;9.064;2023-04-05T06:30:37;16.75;;;10.35;;
26113;SDS011;13966;48.828;9.064;2023-04-05T06:33:03;16.80;;;10.00;;
26113;SDS011;13966;48.828;9.064;2023-04-05T06:35:29;17.48;;;9.90;;
26113;SDS011;13966;48.828;9.064;2023-04-05T06:37:55;16.50;;;10.68;;
26113;SDS011;13966;48.828;9.064;2023-04-05T06:40:21;19.70;;;10.18;;
26113;SDS011;13966;48.828;9.064;2023-04-05T06:42:47;18.90;;;10.80;;
26113;SDS011;13966;48.828;9.064;2023-04-05T06:45:16;16.77;;;10.18;;
26113;SDS011;13966;48.828;9.064;2023-04-05T06:47:43;16.55;;;10.38;;
26113;SDS011;13966;48.828;9.064;2023-04-05T06:50:09;11.93;;;8.65;;
26113;SDS011;13966;48.828;9.064;2023-04-05T06:52:35;13.07;;;8.70;;
26113;SDS011;13966;48.828;9.064;2023-04-05T06:55:02;14.43;;;9.20;;
26113;SDS011;13966;48.828;9.064;2023-04-05T06:57:29;16.50;;;9.13;;
26113;SDS011;13966;48.828;9.064;2023-04-05T06:59:55;14.02;;;9.30;;
26113;SDS011;13966;48.828;9.064;2023-04-05T07:02:21;19.90;;;9.48;;
26113;SDS011;13966;48.828;9.064;2023-04-05T07:04:47;13.05;;;9.23;;
26113;SDS011;13966;48.828;9.064;2023-04-05T07:07:13;14.60;;;9.50;;
26113;SDS011;13966;48.828;9.064;2023-04-05T07:09:39;23.15;;;9.27;;
26113;SDS011;13966;48.828;9.064;2023-04-05T07:12:06;13.10;;;8.63;;
26113;SDS011;13966;48.828;9.064;2023-04-05T07:14:33;13.90;;;8.95;;
26113;SDS011;13966;48.828;9.064;2023-04-05T07:16:59;12.63;;;8.32;;
26113;SDS011;13966;48.828;9.064;2023-04-05T07:19:25;12.68;;;8.18;;
26113;SDS011;13966;48.828;9.064;2023-04-05T07:21:52;14.15;;;8.63;;
26113;SDS011;13966;48.828;9.064;2023-04-05T07:24:18;10.40;;;8.13;;
26113;SDS011;13966;48.828;9.064;2023-04-05T07:26:44;14.02;;;8.40;;
26113;SDS011;13966;48.828;9.064;2023-04-05T07:29:10;15.68;;;8.60;;
26113;SDS011;13966;48.828;9.064;2023-04-05T07:31:37;13.55;;;8.32;;
26113;SDS011;13966;48.828;9.064;2023-04-05T07:34:03;15.65;;;8.57;;
26113;SDS011;13966;48.828;9.064;2023-04-05T07:36:29;12.27;;;8.80;;
26113;SDS011;13966;48.828;9.064;2023-04-05T07:38:55;14.95;;;8.85;;
26113;SDS011;13966;48.828;9.064;2023-04-05T07:41:21;14.88;;;8.77;;
26113;SDS011;13966;48.828;9.064;2023-04-05T07:43:48;11.73;;;8.57;;
26113;SDS011;13966;48.828;9.064;2023-04-05T07:46:14;16.48;;;9.60;;
26113;SDS011;13966;48.828;9.064;2023-04-05T07:48:40;16.08;;;7.80;;
26113;SDS011;13966;48.828;9.064;2023-04-05T07:51:06;13.52;;;8.38;;
26113;SDS011;13966;48.828;9.064;2023-04-05T07:53:34;12.68;;;7.72;;
26113;SDS011;13966;48.828;9.064;2023-04-05T07:56:03;11.43;;;7.85;;
26113;SDS011;13966;48.828;9.064;2023-04-05T07:58:29;14.13;;;8.15;;
26113;SDS011;13966;48.828;9.064;2023-04-05T08:01:03;13.98;;;7.15;;
26113;SDS011;13966;48.828;9.064;2023-04-05T08:03:30;11.90;;;7.20;;
26113;SDS011;13966;48.828;9.064;2023-04-05T08:05:56;11.95;;;7.78;;
26113;SDS011;13966;48.828;9.064;2023-04-05T08:08:23;12.48;;;7.53;;
26113;SDS011;13966;48.828;9.064;2023-04-05T08:10:49;12.60;;;6.68;;
26113;SDS011;13966;48.828;9.064;2023-04-05T08:13:15;10.82;;;7.03;;
26113;SDS011;13966;48.828;9.064;2023-04-05T08:15:41;10.38;;;6.88;;
26113;SDS011;13966;48.828;9.064;2023-04-05T08:18:07;10.95;;;6.75;;
26113;SDS011;13966;48.828;9.064;2023-04-05T08:20:33;11.77;;;6.95;;
26113;SDS011;13966;48.828;9.064;2023-04-05T08:23:03;12.68;;;6.75;;
26113;SDS011;13966;48.828;9.064;2023-04-05T08:25:29;11.02;;;6.38;;
26113;SDS011;13966;48.828;9.064;2023-04-05T08:27:55;9.75;;;6.43;;
26113;SDS011;13966;48.828;9.064;2023-04-05T08:30:21;12.02;;;6.15;;
26113;SDS011;13966;48.828;9.064;2023-04-05T08:32:47;13.32;;;6.20;;
26113;SDS011;13966;48.828;9.064;2023-04-05T08:35:14;9.18;;;5.63;;
26113;SDS011;13966;48.828;9.064;2023-04-05T08:37:40;10.63;;;6.07;;
26113;SDS011;13966;48.828;9.064;2023-04-05T08:40:06;11.68;;;6.95;;
26113;SDS011;13966;48.828;9.064;2023-04-05T08:42:33;10.52;;;6.28;;
26113;SDS011;13966;48.828;9.064;2023-04-05T08:45:02;10.05;;;5.50;;
26113;SDS011;13966;48.828;9.064;2023-04-05T08:47:28;10.65;;;5.50;;
26113;SDS011;13966;48.828;9.064;2023-04-05T08:49:55;9.25;;;5.78;;
26113;SDS011;13966;48.828;9.064;2023-04-05T08:52:21;7.25;;;5.50;;
26113;SDS011;13966;48.828;9.064;2023-04-05T08:54:47;11.23;;;6.25;;
26113;SDS011;13966;48.828;9.064;2023-04-05T08:57:14;9.07;;;5.40;;
26113;SDS011;13966;48.828;9.064;2023-04-05T08:59:40;11.20;;;5.97;;
26113;SDS011;13966;48.828;9.064;2023-04-05T09:02:14;10.48;;;6.15;;
26113;SDS011;13966;48.828;9.064;2023-04-05T09:04:42;9.90;;;5.65;;
26113;SDS011;13966;48.828;9.064;2023-04-05T09:07:08;9.95;;;5.90;;
26113;SDS011;13966;48.828;9.064;2023-04-05T09:09:36;8.05;;;5.35;;
26113;SDS011;13966;48.828;9.064;2023-04-05T09:12:02;8.77;;;5.45;;
26113;SDS011;13966;48.828;9.064;2023-04-05T09:14:29;8.95;;;4.80;;
26113;SDS011;13966;48.828;9.064;2023-04-05T09:16:55;10.73;;;5.25;;
26113;SDS011;13966;48.828;9.064;2023-04-05T09:19:22;8.90;;;5.70;;
26113;SDS011;13966;48.828;9.064;2023-04-05T09:27:08;8.23;;;4.95;;
26113;SDS011;13966;48.828;9.064;2023-04-05T09:29:34;7.75;;;4.65;;
26113;SDS011;13966;48.828;9.064;2023-04-05T09:32:01;8.55;;;4.63;;
26113;SDS011;13966;48.828;9.064;2023-04-05T09:34:28;6.60;;;4.70;;
26113;SDS011;13966;48.828;9.064;2023-04-05T09:36:55;7.80;;;5.20;;
26113;SDS011;13966;48.828;9.064;2023-04-05T09:39:26;6.57;;;5.07;;
26113;SDS011;13966;48.828;9.064;2023-04-05T09:44:18;7.50;;;4.65;;
26113;SDS011;13966;48.828;9.064;2023-04-05T09:46:44;6.85;;;4.20;;
26113;SDS011;13966;48.828;9.064;2023-04-05T09:49:10;8.23;;;4.50;;
26113;SDS011;13966;48.828;9.064;2023-04-05T09:51:38;8.15;;;4.80;;
26113;SDS011;13966;48.828;9.064;2023-04-05T09:54:08;7.47;;;4.63;;
26113;SDS011;13966;48.828;9.064;2023-04-05T09:56:35;6.45;;;4.50;;
26113;SDS011;13966;48.828;9.064;2023-04-05T09:59:07;9.13;;;5.30;;
26113;SDS011;13966;48.828;9.064;2023-04-05T10:01:34;8.73;;;4.30;;
26113;SDS011;13966;48.828;9.064;2023-04-05T10:04:00;10.05;;;4.97;;
26113;SDS011;13966;48.828;9.064;2023-04-05T10:06:33;9.90;;;4.45;;
26113;SDS011;13966;48.828;9.064;2023-04-05T10:09:00;9.77;;;4.53;;
26113;SDS011;13966;48.828;9.064;2023-04-05T10:11:26;8.45;;;4.60;;
26113;SDS011;13966;48.828;9.064;2023-04-05T10:13:53;10.30;;;4.80;;
26113;SDS011;13966;48.828;9.064;2023-04-05T10:16:20;7.22;;;4.80;;
26113;SDS011;13966;48.828;9.064;2023-04-05T10:18:48;8.80;;;5.13;;
26113;SDS011;13966;48.828;9.064;2023-04-05T10:21:16;7.25;;;4.57;;
26113;SDS011;13966;48.828;9.064;2023-04-05T10:23:44;8.88;;;5.28;;
26113;SDS011;13966;48.828;9.064;2023-04-05T10:26:22;5.47;;;4.53;;
26113;SDS011;13966;48.828;9.064;2023-04-05T10:28:54;6.80;;;4.80;;
26113;SDS011;13966;48.828;9.064;2023-04-05T10:33:49;8.00;;;5.47;;
26113;SDS011;13966;48.828;9.064;2023-04-05T10:36:25;8.60;;;4.87;;
26113;SDS011;13966;48.828;9.064;2023-04-05T10:41:29;6.78;;;4.70;;
26113;SDS011;13966;48.828;9.064;2023-04-05T10:43:59;6.88;;;5.00;;
26113;SDS011;13966;48.828;9.064;2023-04-05T10:46:26;8.30;;;4.65;;
26113;SDS011;13966;48.828;9.064;2023-04-05T10:49:02;7.50;;;4.53;;
26113;SDS011;13966;48.828;9.064;2023-04-05T10:51:29;5.57;;;4.05;;
26113;SDS011;13966;48.828;9.064;2023-04-05T10:53:55;6.10;;;4.07;;
26113;SDS011;13966;48.828;9.064;2023-04-05T10:56:21;8.15;;;4.25;;
26113;SDS011;13966;48.828;9.064;2023-04-05T10:58:48;7.32;;;4.95;;
26113;SDS011;13966;48.828;9.064;2023-04-05T11:01:14;5.43;;;4.35;;
26113;SDS011;13966;48.828;9.064;2023-04-05T11:03:48;7.22;;;4.55;;
26113;SDS011;13966;48.828;9.064;2023-04-05T11:08:45;7.82;;;4.50;;
26113;SDS011;13966;48.828;9.064;2023-04-05T11:11:12;7.25;;;4.63;;
26113;SDS011;13966;48.828;9.064;2023-04-05T11:13:51;7.85;;;4.68;;
26113;SDS011;13966;48.828;9.064;2023-04-05T11:16:17;8.32;;;5.10;;
26113;SDS011;13966;48.828;9.064;2023-04-05T11:18:47;6.18;;;4.38;;
26113;SDS011;13966;48.828;9.064;2023-04-05T11:21:20;7.40;;;4.63;;
26113;SDS011;13966;48.828;9.064;2023-04-05T11:26:30;9.00;;;4.57;;
26113;SDS011;13966;48.828;9.064;2023-04-05T11:28:56;6.97;;;4.10;;
26113;SDS011;13966;48.828;9.064;2023-04-05T11:31:23;8.27;;;4.65;;
26113;SDS011;13966;48.828;9.064;2023-04-05T11:33:57;8.38;;;4.68;;
26113;SDS011;13966;48.828;9.064;2023-04-05T11:41:41;8.82;;;4.20;;
26113;SDS011;13966;48.828;9.064;2023-04-05T11:44:09;5.53;;;3.95;;
26113;SDS011;13966;48.828;9.064;2023-04-05T11:46:38;8.63;;;4.88;;
26113;SDS011;13966;48.828;9.064;2023-04-05T11:49:04;7.05;;;4.43;;
26113;SDS011;13966;48.828;9.064;2023-04-05T11:51:32;5.82;;;4.00;;
26113;SDS011;13966;48.828;9.064;2023-04-05T11:53:58;8.10;;;4.30;;
26113;SDS011;13966;48.828;9.064;2023-04-05T11:56:24;6.72;;;4.35;;
26113;SDS011;13966;48.828;9.064;2023-04-05T11:58:50;5.82;;;4.15;;
26113;SDS011;13966;48.828;9.064;2023-04-05T12:01:16;5.15;;;4.10;;
26113;SDS011;13966;48.828;9.064;2023-04-05T12:03:42;6.82;;;4.18;;
26113;SDS011;13966;48.828;9.064;2023-04-05T12:06:08;7.43;;;3.65;;
26113;SDS011;13966;48.828;9.064;2023-04-05T12:08:44;6.53;;;3.58;;
26113;SDS011;13966;48.828;9.064;2023-04-05T12:13:52;5.68;;;3.35;;
26113;SDS011;13966;48.828;9.064;2023-04-05T12:16:19;8.10;;;3.45;;
26113;SDS011;13966;48.828;9.064;2023-04-05T12:18:45;4.90;;;3.20;;
26113;SDS011;13966;48.828;9.064;2023-04-05T12:21:17;3.67;;;2.78;;
26113;SDS011;13966;48.828;9.064;2023-04-05T12:23:43;3.95;;;2.75;;
26113;SDS011;13966;48.828;9.064;2023-04-05T12:26:09;6.75;;;2.80;;
26113;SDS011;13966;48.828;9.064;2023-04-05T12:28:51;4.13;;;2.65;;
26113;SDS011;13966;48.828;9.064;2023-04-05T12:31:36;6.82;;;2.92;;
26113;SDS011;13966;48.828;9.064;2023-04-05T12:34:02;4.18;;;2.63;;
26113;SDS011;13966;48.828;9.064;2023-04-05T12:36:29;3.83;;;2.60;;
26113;SDS011;13966;48.828;9.064;2023-04-05T12:38:58;3.60;;;2.58;;
26113;SDS011;13966;48.828;9.064;2023-04-05T12:41:31;3.80;;;2.50;;
26113;SDS011;13966;48.828;9.064;2023-04-05T12:43:58;4.65;;;2.60;;
26113;SDS011;13966;48.828;9.064;2023-04-05T12:46:41;4.28;;;2.65;;
26113;SDS011;13966;48.828;9.064;2023-04-05T12:49:14;3.33;;;2.40;;
26113;SDS011;13966;48.828;9.064;2023-04-05T12:51:41;3.58;;;2.30;;
26113;SDS011;13966;48.828;9.064;2023-04-05T12:54:10;3.00;;;2.53;;
26113;SDS011;13966;48.828;9.064;2023-04-05T12:56:37;5.85;;;2.70;;
26113;SDS011;13966;48.828;9.064;2023-04-05T12:59:06;3.20;;;2.13;;
26113;SDS011;13966;48.828;9.064;2023-04-05T13:01:32;4.60;;;2.40;;
26113;SDS011;13966;48.828;9.064;2023-04-05T13:03:59;3.35;;;2.60;;
26113;SDS011;13966;48.828;9.064;2023-04-05T13:06:25;3.25;;;2.25;;
26113;SDS011;13966;48.828;9.064;2023-04-05T13:08:51;4.85;;;2.35;;
26113;SDS011;13966;48.828;9.064;2023-04-05T13:11:17;2.95;;;2.20;;
26113;SDS011;13966;48.828;9.064;2023-04-05T13:13:43;3.47;;;1.95;;
26113;SDS011;13966;48.828;9.064;2023-04-05T13:16:10;3.15;;;2.40;;
26113;SDS011;13966;48.828;9.064;2023-04-05T13:18:36;4.93;;;2.35;;
26113;SDS011;13966;48.828;9.064;2023-04-05T13:21:02;3.17;;;2.25;;
26113;SDS011;13966;48.828;9.064;2023-04-05T13:23:34;4.47;;;2.35;;
26113;SDS011;13966;48.828;9.064;2023-04-05T13:26:01;4.53;;;2.28;;
26113;SDS011;13966;48.828;9.064;2023-04-05T13:28:27;3.95;;;2.35;;
26113;SDS011;13966;48.828;9.064;2023-04-05T13:30:53;4.50;;;2.33;;
26113;SDS011;13966;48.828;9.064;2023-04-05T13:33:19;8.48;;;2.47;;
26113;SDS011;13966;48.828;9.064;2023-04-05T13:35:45;4.60;;;2.22;;
26113;SDS011;13966;48.828;9.064;2023-04-05T13:38:11;4.03;;;2.42;;
26113;SDS011;13966;48.828;9.064;2023-04-05T13:40:37;5.40;;;2.30;;
26113;SDS011;13966;48.828;9.064;2023-04-05T13:43:03;2.88;;;2.35;;
26113;SDS011;13966;48.828;9.064;2023-04-05T13:45:29;6.72;;;2.70;;
26113;SDS011;13966;48.828;9.064;2023-04-05T13:47:56;2.63;;;2.08;;
26113;SDS011;13966;48.828;9.064;2023-04-05T13:50:22;3.03;;;2.50;;
26113;SDS011;13966;48.828;9.064;2023-04-05T13:52:49;3.67;;;2.35;;
26113;SDS011;13966;48.828;9.064;2023-04-05T13:55:15;4.55;;;2.60;;
26113;SDS011;13966;48.828;9.064;2023-04-05T13:57:41;5.63;;;2.50;;
26113;SDS011;13966;48.828;9.064;2023-04-05T14:00:08;5.43;;;2.80;;
26113;SDS011;13966;48.828;9.064;2023-04-05T14:02:34;3.17;;;2.50;;
26113;SDS011;13966;48.828;9.064;2023-04-05T14:05:00;3.70;;;2.58;;
26113;SDS011;13966;48.828;9.064;2023-04-05T14:07:26;4.90;;;3.05;;
26113;SDS011;13966;48.828;9.064;2023-04-05T14:09:52;2.65;;;2.17;;
26113;SDS011;13966;48.828;9.064;2023-04-05T14:12:18;2.70;;;2.20;;
26113;SDS011;13966;48.828;9.064;2023-04-05T14:14:44;3.42;;;2.40;;
26113;SDS011;13966;48.828;9.064;2023-04-05T14:17:10;3.70;;;2.78;;
26113;SDS011;13966;48.828;9.064;2023-04-05T14:19:39;3.05;;;2.30;;
26113;SDS011;13966;48.828;9.064;2023-04-05T14:22:05;3.15;;;2.72;;
26113;SDS011;13966;48.828;9.064;2023-04-05T14:24:32;3.90;;;2.67;;
26113;SDS011;13966;48.828;9.064;2023-04-05T14:26:58;4.28;;;2.70;;
26113;SDS011;13966;48.828;9.064;2023-04-05T14:29:25;3.45;;;2.67;;
26113;SDS011;13966;48.828;9.064;2023-04-05T14:31:51;3.83;;;2.58;;
26113;SDS011;13966;48.828;9.064;2023-04-05T14:34:17;4.25;;;2.47;;
26113;SDS011;13966;48.828;9.064;2023-04-05T14:36:43;3.72;;;2.40;;
26113;SDS011;13966;48.828;9.064;2023-04-05T14:39:09;3.75;;;2.50;;
26113;SDS011;13966;48.828;9.064;2023-04-05T14:41:35;3.63;;;2.50;;
26113;SDS011;13966;48.828;9.064;2023-04-05T14:44:02;3.08;;;2.55;;
26113;SDS011;13966;48.828;9.064;2023-04-05T14:46:29;3.80;;;2.20;;
26113;SDS011;13966;48.828;9.064;2023-04-05T14:48:55;3.50;;;2.20;;
26113;SDS011;13966;48.828;9.064;2023-04-05T14:51:21;3.00;;;2.30;;
26113;SDS011;13966;48.828;9.064;2023-04-05T14:53:47;4.30;;;2.40;;
26113;SDS011;13966;48.828;9.064;2023-04-05T14:56:13;3.13;;;2.30;;
26113;SDS011;13966;48.828;9.064;2023-04-05T14:58:39;4.50;;;2.60;;
26113;SDS011;13966;48.828;9.064;2023-04-05T15:01:06;4.45;;;2.67;;
26113;SDS011;13966;48.828;9.064;2023-04-05T15:03:34;3.83;;;2.25;;
26113;SDS011;13966;48.828;9.064;2023-04-05T15:06:00;4.03;;;2.47;;
26113;SDS011;13966;48.828;9.064;2023-04-05T15:08:26;4.15;;;2.85;;
26113;SDS011;13966;48.828;9.064;2023-04-05T15:10:52;3.17;;;2.65;;
26113;SDS011;13966;48.828;9.064;2023-04-05T15:13:18;3.42;;;2.60;;
26113;SDS011;13966;48.828;9.064;2023-04-05T15:15:45;12.55;;;9.07;;